createdAt,value
2022-08-22T00:02:37.354Z,99.90
2022-08-22T00:02:48.935Z,89.70
2022-08-22T00:02:49.119Z,90.20
2022-08-22T00:02:58.382Z,89.40
2022-08-22T00:03:03.565Z,93.30
2022-08-22T00:03:09.412Z,91.40
2022-08-22T00:03:15.427Z,99.90
2022-08-22T00:05:35.232Z,99.90
2022-08-22T00:08:17.199Z,99.90
2022-08-22T00:11:03.336Z,99.90
2022-08-22T00:14:13.427Z,99.90
2022-08-22T00:16:58.634Z,99.90
2022-08-22T00:19:44.459Z,99.90
2022-08-22T00:22:44.925Z,99.90
2022-08-22T00:25:26.162Z,99.90
2022-08-22T00:27:59.745Z,99.90
2022-08-22T00:30:27.907Z,99.90
2022-08-22T00:33:01.712Z,99.90
2022-08-22T00:35:46.526Z,99.90
2022-08-22T00:38:31.139Z,99.90
2022-08-22T00:41:06.943Z,99.90
2022-08-22T00:43:58.519Z,99.90
2022-08-22T00:46:40.433Z,99.90
2022-08-22T00:49:11.216Z,99.90
2022-08-22T00:52:08.460Z,99.90
2022-08-22T00:54:52.348Z,99.90
2022-08-22T00:57:41.683Z,99.90
2022-08-22T01:00:22.756Z,99.90
2022-08-22T01:03:34.891Z,99.90
2022-08-22T01:06:39.770Z,99.90
2022-08-22T01:09:13.341Z,99.90
2022-08-22T01:12:14.368Z,99.90
2022-08-22T01:15:00.549Z,99.90
2022-08-22T01:17:49.327Z,99.90
2022-08-22T01:20:35.247Z,99.90
2022-08-22T01:23:32.658Z,99.90
2022-08-22T01:26:21.295Z,99.90
2022-08-22T01:29:10.453Z,99.90
2022-08-22T01:31:37.652Z,99.90
2022-08-22T01:34:22.817Z,99.90
2022-08-22T01:37:07.841Z,99.90
2022-08-22T01:39:52.931Z,99.90
2022-08-22T01:42:46.788Z,99.90
2022-08-22T01:45:38.710Z,99.90
2022-08-22T01:48:14.527Z,99.90
2022-08-22T01:50:58.017Z,99.90
2022-08-22T01:53:41.470Z,99.90
2022-08-22T01:56:18.936Z,99.90
2022-08-22T01:59:01.697Z,99.90
2022-08-22T02:01:46.964Z,99.90
2022-08-22T02:04:20.332Z,99.90
2022-08-22T02:07:11.727Z,99.90
2022-08-22T02:09:38.671Z,99.90
2022-08-22T02:12:21.446Z,99.90
2022-08-22T02:15:18.388Z,99.90
2022-08-22T02:17:55.795Z,99.90
2022-08-22T02:20:28.864Z,99.90
2022-08-22T02:23:07.919Z,99.90
2022-08-22T02:25:46.521Z,99.90
2022-08-22T02:28:19.592Z,99.90
2022-08-22T02:30:56.744Z,99.90
2022-08-22T02:33:51.392Z,99.90
2022-08-22T02:36:25.196Z,99.90
2022-08-22T02:39:13.496Z,99.90
2022-08-22T02:42:16.434Z,99.90
2022-08-22T02:44:52.094Z,99.90
2022-08-22T02:47:37.657Z,99.90
2022-08-22T02:50:19.720Z,99.90
2022-08-22T02:52:55.903Z,99.90
2022-08-22T02:56:02.016Z,99.90
2022-08-22T02:58:50.620Z,99.90
2022-08-22T03:01:26.496Z,99.90
2022-08-22T03:04:22.309Z,99.90
2022-08-22T03:07:08.074Z,99.90
2022-08-22T03:09:42.529Z,99.90
2022-08-22T03:12:09.517Z,99.90
2022-08-22T03:14:47.864Z,99.90
2022-08-22T03:17:51.094Z,99.90
2022-08-22T03:20:43.000Z,99.90
2022-08-22T03:23:25.488Z,99.90
2022-08-22T03:26:07.873Z,99.90
2022-08-22T03:29:01.416Z,99.90
2022-08-22T03:31:30.441Z,99.90
2022-08-22T03:34:21.505Z,99.90
2022-08-22T03:37:02.222Z,99.90
2022-08-22T03:39:43.055Z,99.90
2022-08-22T03:42:38.883Z,99.90
2022-08-22T03:45:38.594Z,99.90
2022-08-22T03:48:44.697Z,99.90
2022-08-22T03:51:25.644Z,99.90
2022-08-22T03:54:17.557Z,99.90
2022-08-22T03:57:00.593Z,99.90
2022-08-22T03:59:42.795Z,99.90
2022-08-22T04:02:43.620Z,99.90
2022-08-22T04:05:37.785Z,99.90
2022-08-22T04:08:29.181Z,99.90
2022-08-22T04:11:24.146Z,99.90
2022-08-22T04:14:12.371Z,99.90
2022-08-22T04:16:42.317Z,99.90
2022-08-22T04:19:28.235Z,99.90
2022-08-22T04:22:26.044Z,99.90
2022-08-22T04:25:25.718Z,99.90
2022-08-22T04:28:20.008Z,99.90
2022-08-22T04:30:49.267Z,99.90
2022-08-22T04:33:38.204Z,99.90
2022-08-22T04:36:13.529Z,99.90
2022-08-22T04:38:47.931Z,99.90
2022-08-22T04:41:19.445Z,99.90
2022-08-22T04:44:02.404Z,99.90
2022-08-22T04:46:53.498Z,99.90
2022-08-22T04:49:38.515Z,99.90
2022-08-22T04:52:33.341Z,99.90
2022-08-22T04:55:18.903Z,99.90
2022-08-22T05:02:09.637Z,99.90
2022-08-22T05:04:44.470Z,99.90
2022-08-22T05:07:29.242Z,99.90
2022-08-22T05:10:12.317Z,99.90
2022-08-22T05:12:49.677Z,99.90
2022-08-22T05:15:38.453Z,99.90
2022-08-22T05:18:13.526Z,99.90
2022-08-22T05:20:44.601Z,99.90
2022-08-22T05:23:29.660Z,99.90
2022-08-22T05:26:01.355Z,99.90
2022-08-22T05:28:44.531Z,99.90
2022-08-22T05:31:19.016Z,99.90
2022-08-22T05:33:56.846Z,99.90
2022-08-22T05:36:31.909Z,99.90
2022-08-22T05:39:16.232Z,99.90
2022-08-22T05:41:44.782Z,99.90
2022-08-22T05:44:28.272Z,99.90
2022-08-22T05:47:16.774Z,99.90
2022-08-22T05:50:02.217Z,99.90
2022-08-22T05:52:59.378Z,99.90
2022-08-22T05:55:36.731Z,99.90
2022-08-22T05:58:29.110Z,99.90
2022-08-22T06:01:28.729Z,99.90
2022-08-22T06:04:21.216Z,99.90
2022-08-22T06:07:23.675Z,99.90
2022-08-22T06:10:25.683Z,99.90
2022-08-22T06:13:05.284Z,99.90
2022-08-22T06:15:41.179Z,99.90
2022-08-22T06:18:16.967Z,99.90
2022-08-22T06:25:15.030Z,99.90
2022-08-22T06:27:44.573Z,99.90
2022-08-22T06:30:16.056Z,99.90
2022-08-22T06:33:08.407Z,99.90
2022-08-22T06:36:07.627Z,99.90
2022-08-22T06:38:53.067Z,99.90
2022-08-22T06:41:22.382Z,99.90
2022-08-22T06:43:55.304Z,99.90
2022-08-22T06:46:25.073Z,99.90
2022-08-22T06:48:54.356Z,99.90
2022-08-22T06:51:25.147Z,99.90
2022-08-22T06:53:56.992Z,99.90
2022-08-22T06:56:30.143Z,99.90
2022-08-22T06:59:01.466Z,99.90
2022-08-22T07:01:38.239Z,99.90
2022-08-22T07:04:09.107Z,99.90
2022-08-22T07:06:50.458Z,99.90
2022-08-22T07:09:26.028Z,99.90
2022-08-22T07:11:56.427Z,99.90
2022-08-22T07:14:39.018Z,99.90
2022-08-22T07:17:35.936Z,99.90
2022-08-22T07:20:22.544Z,99.90
2022-08-22T07:23:14.392Z,99.90
2022-08-22T07:25:58.111Z,99.90
2022-08-22T07:28:51.639Z,99.90
2022-08-22T07:31:31.779Z,99.90
2022-08-22T07:34:19.133Z,99.90
2022-08-22T07:37:05.847Z,99.90
2022-08-22T07:39:44.402Z,99.90
2022-08-22T07:46:38.551Z,99.90
2022-08-22T07:49:26.553Z,99.90
2022-08-22T07:52:29.595Z,99.90
2022-08-22T07:55:16.989Z,99.90
2022-08-22T07:58:06.057Z,99.90
2022-08-22T08:01:00.167Z,99.90
2022-08-22T08:03:30.762Z,99.90
2022-08-22T08:06:00.486Z,99.90
2022-08-22T08:08:33.605Z,99.90
2022-08-22T08:11:03.064Z,99.90
2022-08-22T08:13:35.555Z,99.90
2022-08-22T08:20:30.467Z,99.90
2022-08-22T08:22:59.424Z,99.90
2022-08-22T08:25:30.916Z,99.90
2022-08-22T08:28:18.517Z,99.90
2022-08-22T08:30:53.181Z,99.90
2022-08-22T08:33:26.740Z,99.90
2022-08-22T08:36:32.635Z,99.90
2022-08-22T08:39:14.354Z,99.90
2022-08-22T08:41:55.383Z,99.90
2022-08-22T08:44:46.031Z,99.90
2022-08-22T08:47:51.330Z,99.90
2022-08-22T08:50:36.501Z,99.90
2022-08-22T08:56:23.633Z,99.90
2022-08-22T08:59:16.012Z,99.90
2022-08-22T09:01:55.500Z,99.90
2022-08-22T09:04:53.803Z,99.90
2022-08-22T09:07:43.106Z,99.90
2022-08-22T09:11:01.184Z,99.90
2022-08-22T09:13:41.753Z,98.00
2022-08-22T09:16:27.083Z,94.80
2022-08-22T09:19:06.592Z,95.60
2022-08-22T09:21:54.900Z,97.60
2022-08-22T09:24:41.262Z,94.50
2022-08-22T09:27:40.015Z,92.20
2022-08-22T09:30:15.661Z,94.50
2022-08-22T09:33:00.932Z,91.80
2022-08-22T09:35:52.699Z,86.90
2022-08-22T09:38:38.791Z,86.60
2022-08-22T09:40:16.105Z,99.90
2022-08-22T09:41:59.296Z,86.00
2022-08-22T09:44:50.096Z,83.60
2022-08-22T09:47:24.990Z,82.70
2022-08-22T09:50:12.460Z,84.00
2022-08-22T09:53:10.463Z,82.90
2022-08-22T09:55:56.130Z,86.20
2022-08-22T09:58:42.208Z,85.20
2022-08-22T10:01:26.188Z,84.00
2022-08-22T10:04:19.553Z,82.50
2022-08-22T10:07:12.095Z,79.20
2022-08-22T10:10:04.203Z,81.30
2022-08-22T10:12:36.767Z,78.30
2022-08-22T10:15:06.751Z,78.10
2022-08-22T10:17:41.749Z,75.60
2022-08-22T10:20:20.955Z,76.40
2022-08-22T10:22:57.140Z,75.80
2022-08-22T10:25:42.314Z,74.80
2022-08-22T10:28:31.427Z,77.50
2022-08-22T10:31:29.349Z,76.90
2022-08-22T10:34:07.947Z,76.60
2022-08-22T10:36:50.031Z,74.40
2022-08-22T10:39:24.498Z,73.00
2022-08-22T10:41:54.565Z,70.90
2022-08-22T10:44:34.084Z,72.70
2022-08-22T10:47:20.886Z,73.10
2022-08-22T10:49:56.855Z,73.90
2022-08-22T10:52:33.343Z,72.90
2022-08-22T10:55:32.615Z,72.70
2022-08-22T10:58:08.215Z,70.50
2022-08-22T11:00:46.176Z,68.30
2022-08-22T11:03:25.815Z,69.10
2022-08-22T11:05:59.183Z,68.80
2022-08-22T11:08:45.482Z,69.50
2022-08-22T11:11:23.124Z,70.00
2022-08-22T11:14:14.105Z,69.20
2022-08-22T11:17:54.168Z,68.90
2022-08-22T11:20:52.537Z,68.30
2022-08-22T11:23:36.758Z,69.40
2022-08-22T11:26:29.217Z,69.40
2022-08-22T11:29:18.942Z,70.50
2022-08-22T11:32:07.666Z,67.80
2022-08-22T11:34:55.126Z,66.70
2022-08-22T11:38:31.213Z,66.70
2022-08-22T11:41:12.989Z,67.20
2022-08-22T11:43:46.468Z,65.50
2022-08-22T11:46:32.490Z,64.30
2022-08-22T11:49:36.908Z,64.00
2022-08-22T11:53:08.625Z,61.30
2022-08-22T11:55:47.495Z,62.10
2022-08-22T11:58:39.307Z,61.70
2022-08-22T12:01:13.049Z,60.60
2022-08-22T12:04:09.761Z,61.60
2022-08-22T12:06:46.770Z,58.70
2022-08-22T12:09:38.690Z,61.40
2022-08-22T12:12:42.679Z,58.40
2022-08-22T12:15:28.609Z,59.50
2022-08-22T12:18:21.488Z,59.20
2022-08-22T12:21:16.305Z,57.50
2022-08-22T12:24:19.330Z,57.90
2022-08-22T12:27:00.321Z,59.30
2022-08-22T12:29:34.005Z,57.90
2022-08-22T12:32:12.970Z,58.00
2022-08-22T12:35:14.649Z,57.20
2022-08-22T12:37:53.348Z,56.70
2022-08-22T12:40:58.383Z,58.20
2022-08-22T12:43:42.352Z,57.50
2022-08-22T12:46:18.632Z,55.60
2022-08-22T12:49:08.169Z,55.70
2022-08-22T12:51:41.412Z,53.70
2022-08-22T12:54:23.632Z,55.70
2022-08-22T12:56:50.648Z,55.80
2022-08-22T13:00:15.886Z,53.80
2022-08-22T13:02:53.762Z,54.20
2022-08-22T13:05:27.350Z,54.30
2022-08-22T13:08:02.338Z,54.80
2022-08-22T13:10:50.554Z,55.00
2022-08-22T13:13:39.376Z,51.70
2022-08-22T13:16:13.135Z,53.40
2022-08-22T13:18:53.415Z,53.40
2022-08-22T13:21:31.590Z,52.10
2022-08-22T13:24:16.787Z,52.60
2022-08-22T13:26:55.967Z,53.30
2022-08-22T13:29:27.639Z,55.30
2022-08-22T13:32:07.582Z,52.10
2022-08-22T13:34:48.706Z,51.40
2022-08-22T13:37:24.580Z,53.10
2022-08-22T13:39:58.813Z,53.30
2022-08-22T13:42:30.511Z,56.30
2022-08-22T13:45:05.442Z,55.00
2022-08-22T13:47:39.657Z,57.10
2022-08-22T13:50:13.972Z,60.10
2022-08-22T13:53:05.910Z,58.20
2022-08-22T13:55:50.448Z,60.20
2022-08-22T13:58:42.310Z,58.30
2022-08-22T14:01:16.264Z,58.60
2022-08-22T14:04:28.785Z,56.70
2022-08-22T14:07:13.628Z,57.20
2022-08-22T14:10:00.127Z,56.10
2022-08-22T14:13:11.990Z,56.00
2022-08-22T14:15:45.906Z,57.70
2022-08-22T14:18:45.528Z,57.10
2022-08-22T14:21:33.572Z,56.80
2022-08-22T14:24:25.751Z,57.20
2022-08-22T14:27:06.913Z,56.70
2022-08-22T14:29:50.425Z,56.40
2022-08-22T14:32:25.856Z,56.60
2022-08-22T14:35:03.068Z,56.10
2022-08-22T14:37:40.104Z,56.10
2022-08-22T14:40:25.013Z,57.00
2022-08-22T14:42:55.948Z,56.60
2022-08-22T14:45:33.028Z,53.90
2022-08-22T14:48:30.346Z,54.30
2022-08-22T14:51:04.339Z,53.90
2022-08-22T14:53:38.120Z,54.80
2022-08-22T14:56:12.343Z,55.30
2022-08-22T14:59:07.521Z,53.40
2022-08-22T15:01:53.259Z,53.50
2022-08-22T15:04:39.003Z,53.70
2022-08-22T15:07:07.752Z,53.90
2022-08-22T15:09:49.200Z,53.70
2022-08-22T15:12:32.647Z,53.70
2022-08-22T15:15:24.484Z,52.60
2022-08-22T15:17:51.564Z,54.90
2022-08-22T15:20:38.303Z,56.80
2022-08-22T15:23:23.367Z,55.50
2022-08-22T15:26:19.228Z,54.80
2022-08-22T15:28:57.305Z,55.20
2022-08-22T15:31:25.075Z,55.70
2022-08-22T15:33:53.114Z,55.70
2022-08-22T15:36:24.249Z,55.40
2022-08-22T15:39:17.303Z,56.30
2022-08-22T15:41:48.096Z,55.00
2022-08-22T15:44:33.115Z,55.80
2022-08-22T15:47:27.775Z,57.20
2022-08-22T15:50:01.082Z,55.70
2022-08-22T15:52:57.162Z,55.60
2022-08-22T15:55:34.477Z,56.50
2022-08-22T15:58:07.774Z,55.60
2022-08-22T16:01:19.652Z,54.70
2022-08-22T16:04:02.683Z,54.80
2022-08-22T16:06:47.252Z,54.00
2022-08-22T16:09:36.033Z,55.30
2022-08-22T16:12:09.048Z,54.70
2022-08-22T16:14:36.037Z,55.00
2022-08-22T16:17:08.207Z,55.90
2022-08-22T16:19:38.356Z,55.70
2022-08-22T16:22:08.125Z,56.20
2022-08-22T16:24:56.852Z,56.30
2022-08-22T16:27:26.210Z,56.50
2022-08-22T16:30:06.102Z,56.40
2022-08-22T16:32:34.949Z,57.10
2022-08-22T16:35:01.972Z,57.60
2022-08-22T16:37:45.276Z,58.40
2022-08-22T16:40:25.274Z,58.70
2022-08-22T16:43:11.940Z,58.50
2022-08-22T16:45:48.583Z,58.40
2022-08-22T16:48:35.443Z,58.70
2022-08-22T16:51:12.282Z,59.70
2022-08-22T16:53:45.794Z,59.90
2022-08-22T16:56:19.411Z,59.90
2022-08-22T16:59:22.513Z,61.20
2022-08-22T17:02:08.464Z,60.50
2022-08-22T17:04:50.522Z,60.70
2022-08-22T17:07:26.539Z,61.50
2022-08-22T17:10:28.586Z,62.10
2022-08-22T17:13:16.788Z,62.30
2022-08-22T17:16:15.570Z,63.10
2022-08-22T17:18:58.788Z,63.90
2022-08-22T17:22:15.430Z,63.90
2022-08-22T17:24:56.423Z,65.10
2022-08-22T17:27:35.070Z,65.30
2022-08-22T17:30:15.175Z,65.80
2022-08-22T17:33:09.714Z,66.20
2022-08-22T17:35:39.912Z,66.10
2022-08-22T17:38:34.428Z,66.60
2022-08-22T17:41:43.663Z,67.00
2022-08-22T17:44:29.143Z,67.50
2022-08-22T17:47:12.493Z,67.60
2022-08-22T17:49:42.190Z,68.30
2022-08-22T17:52:38.031Z,68.70
2022-08-22T17:55:27.244Z,69.40
2022-08-22T17:58:02.943Z,68.40
2022-08-22T18:00:34.657Z,68.70
2022-08-22T18:03:09.830Z,69.50
2022-08-22T18:05:46.904Z,69.60
2022-08-22T18:11:15.483Z,71.00
2022-08-22T18:14:04.915Z,70.30
2022-08-22T18:16:37.400Z,70.40
2022-08-22T18:19:10.068Z,70.80
2022-08-22T18:22:04.156Z,70.80
2022-08-22T18:24:57.602Z,72.00
2022-08-22T18:27:32.588Z,71.60
2022-08-22T18:30:17.354Z,71.50
2022-08-22T18:32:58.722Z,72.40
2022-08-22T18:35:39.164Z,72.70
2022-08-22T18:38:19.400Z,73.00
2022-08-22T18:41:13.783Z,72.80
2022-08-22T18:43:48.380Z,73.50
2022-08-22T18:46:43.676Z,73.80
2022-08-22T18:49:19.942Z,73.90
2022-08-22T18:52:05.884Z,74.50
2022-08-22T18:54:50.873Z,74.40
2022-08-22T18:57:30.898Z,75.00
2022-08-22T19:00:46.321Z,75.50
2022-08-22T19:03:47.546Z,75.90
2022-08-22T19:06:24.283Z,75.90
2022-08-22T19:09:43.407Z,76.90
2022-08-22T19:12:16.162Z,76.70
2022-08-22T19:14:49.301Z,76.90
2022-08-22T19:17:44.479Z,77.30
2022-08-22T19:20:54.985Z,77.60
2022-08-22T19:23:43.706Z,78.20
2022-08-22T19:26:33.892Z,78.00
2022-08-22T19:29:29.748Z,78.80
2022-08-22T19:32:02.086Z,78.90
2022-08-22T19:34:35.440Z,79.60
2022-08-22T19:37:32.904Z,79.50
2022-08-22T19:40:10.011Z,80.40
2022-08-22T19:42:39.947Z,81.60
2022-08-22T19:45:07.329Z,81.10
2022-08-22T19:47:38.164Z,80.60
2022-08-22T19:50:17.950Z,81.60
2022-08-22T19:52:57.856Z,82.20
2022-08-22T19:55:32.602Z,82.50
2022-08-22T19:58:08.520Z,83.20
2022-08-22T20:01:06.609Z,83.10
2022-08-22T20:03:50.314Z,83.30
2022-08-22T20:06:40.686Z,83.60
2022-08-22T20:09:44.867Z,84.40
2022-08-22T20:12:15.694Z,84.80
2022-08-22T20:14:46.406Z,84.00
2022-08-22T20:17:25.596Z,85.30
2022-08-22T20:20:27.937Z,84.80
2022-08-22T20:23:25.218Z,85.00
2022-08-22T20:25:55.998Z,85.30
2022-08-22T20:28:45.887Z,85.60
2022-08-22T20:31:23.715Z,86.00
2022-08-22T20:34:04.779Z,86.60
2022-08-22T20:36:33.093Z,86.90
2022-08-22T20:39:08.666Z,87.00
2022-08-22T20:41:41.388Z,87.70
2022-08-22T20:44:28.872Z,88.20
2022-08-22T20:47:06.038Z,88.90
2022-08-22T20:49:46.145Z,89.60
2022-08-22T20:52:35.345Z,90.00
2022-08-22T20:55:08.395Z,90.70
2022-08-22T20:58:03.588Z,91.10
2022-08-22T21:00:36.038Z,91.10
2022-08-22T21:03:12.040Z,92.10
2022-08-22T21:05:42.589Z,92.20
2022-08-22T21:08:20.013Z,92.70
2022-08-22T21:11:41.810Z,93.30
2022-08-22T21:14:24.093Z,93.40
2022-08-22T21:16:51.262Z,94.00
2022-08-22T21:19:27.011Z,94.20
2022-08-22T21:21:55.235Z,94.70
2022-08-22T21:24:22.194Z,95.00
2022-08-22T21:26:51.728Z,95.40
2022-08-22T21:29:23.346Z,95.10
2022-08-22T21:31:59.338Z,95.70
2022-08-22T21:34:42.469Z,96.10
2022-08-22T21:37:17.272Z,95.80
2022-08-22T21:39:48.139Z,96.60
2022-08-22T21:42:37.357Z,96.30
2022-08-22T21:46:00.312Z,96.60
2022-08-22T21:48:39.390Z,97.40
2022-08-22T21:51:28.475Z,97.00
2022-08-22T21:54:21.790Z,96.90
2022-08-22T22:01:20.318Z,97.60
2022-08-22T22:03:52.064Z,97.70
2022-08-22T22:06:19.089Z,97.40
2022-08-22T22:08:46.572Z,98.00
2022-08-22T22:11:15.300Z,98.40
2022-08-22T22:13:42.644Z,99.00
2022-08-22T22:16:32.712Z,99.20
2022-08-22T22:19:00.969Z,98.70
2022-08-22T22:25:40.314Z,99.10
2022-08-22T22:28:25.022Z,99.90
2022-08-22T22:30:53.436Z,99.90
2022-08-22T22:33:23.244Z,99.90
2022-08-22T22:35:50.876Z,99.90
2022-08-22T22:38:21.956Z,99.90
2022-08-22T22:40:51.211Z,99.90
2022-08-22T22:43:18.199Z,99.90
2022-08-22T22:45:45.352Z,99.90
2022-08-22T22:48:18.145Z,99.90
2022-08-22T22:50:51.425Z,99.90
2022-08-22T22:53:33.619Z,99.90
2022-08-22T22:56:06.781Z,99.90
2022-08-22T22:58:35.817Z,99.90
2022-08-22T23:01:18.903Z,99.90
2022-08-22T23:03:47.583Z,99.90
2022-08-22T23:06:18.679Z,99.90
2022-08-22T23:08:47.263Z,99.90
2022-08-22T23:11:17.801Z,99.90
2022-08-22T23:13:45.564Z,99.90
2022-08-22T23:16:17.240Z,99.90
2022-08-22T23:18:45.272Z,99.90
2022-08-22T23:21:17.057Z,99.90
2022-08-22T23:23:44.759Z,99.90
2022-08-22T23:26:13.009Z,99.90
2022-08-22T23:28:40.214Z,99.90
2022-08-22T23:31:38.161Z,99.90
2022-08-22T23:34:16.810Z,99.90
2022-08-22T23:36:46.755Z,99.90
2022-08-22T23:39:15.448Z,99.90
2022-08-22T23:41:43.724Z,99.90
2022-08-22T23:44:13.687Z,99.90
2022-08-22T23:46:41.575Z,99.90
2022-08-22T23:49:08.954Z,99.90
2022-08-22T23:51:37.055Z,99.90
2022-08-22T23:54:04.830Z,99.90
2022-08-22T23:56:42.430Z,99.90
2022-08-22T23:59:13.224Z,99.90
